sensor_id;sensor_type;location;lat;lon;timestamp;P1;durP1;ratioP1;P2;durP2;ratioP2
49626;SDS011;35527;54.616;39.786;2023-02-02T00:02:08;25.77;;;10.10;;
49626;SDS011;35527;54.616;39.786;2023-02-02T00:05:12;25.13;;;10.73;;
49626;SDS011;35527;54.616;39.786;2023-02-02T00:08:17;28.23;;;12.55;;
49626;SDS011;35527;54.616;39.786;2023-02-02T00:11:22;25.23;;;10.68;;
49626;SDS011;35527;54.616;39.786;2023-02-02T00:14:25;29.80;;;10.93;;
49626;SDS011;35527;54.616;39.786;2023-02-02T00:17:29;37.63;;;22.92;;
49626;SDS011;35527;54.616;39.786;2023-02-02T00:20:38;27.63;;;11.63;;
49626;SDS011;35527;54.616;39.786;2023-02-02T00:23:42;30.77;;;12.07;;
49626;SDS011;35527;54.616;39.786;2023-02-02T00:26:48;28.95;;;11.23;;
49626;SDS011;35527;54.616;39.786;2023-02-02T00:29:55;25.10;;;12.20;;
49626;SDS011;35527;54.616;39.786;2023-02-02T00:32:59;30.02;;;12.70;;
49626;SDS011;35527;54.616;39.786;2023-02-02T00:36:06;27.60;;;10.52;;
49626;SDS011;35527;54.616;39.786;2023-02-02T00:39:09;39.90;;;25.10;;
49626;SDS011;35527;54.616;39.786;2023-02-02T00:42:15;36.78;;;23.65;;
49626;SDS011;35527;54.616;39.786;2023-02-02T00:45:19;31.15;;;11.60;;
49626;SDS011;35527;54.616;39.786;2023-02-02T00:48:22;33.03;;;13.85;;
49626;SDS011;35527;54.616;39.786;2023-02-02T00:51:51;34.00;;;14.15;;
49626;SDS011;35527;54.616;39.786;2023-02-02T00:54:55;32.15;;;14.23;;
49626;SDS011;35527;54.616;39.786;2023-02-02T00:57:58;34.50;;;11.57;;
49626;SDS011;35527;54.616;39.786;2023-02-02T01:01:02;27.55;;;11.70;;
49626;SDS011;35527;54.616;39.786;2023-02-02T01:04:05;31.83;;;12.40;;
49626;SDS011;35527;54.616;39.786;2023-02-02T01:07:11;29.92;;;12.25;;
49626;SDS011;35527;54.616;39.786;2023-02-02T01:10:17;23.50;;;10.68;;
49626;SDS011;35527;54.616;39.786;2023-02-02T01:13:20;30.23;;;11.77;;
49626;SDS011;35527;54.616;39.786;2023-02-02T01:16:23;31.52;;;12.18;;
49626;SDS011;35527;54.616;39.786;2023-02-02T01:19:26;29.27;;;10.68;;
49626;SDS011;35527;54.616;39.786;2023-02-02T01:22:31;31.35;;;11.32;;
49626;SDS011;35527;54.616;39.786;2023-02-02T01:25:38;41.85;;;25.63;;
49626;SDS011;35527;54.616;39.786;2023-02-02T01:28:42;42.53;;;26.17;;
49626;SDS011;35527;54.616;39.786;2023-02-02T01:31:45;27.10;;;10.07;;
49626;SDS011;35527;54.616;39.786;2023-02-02T01:34:49;23.85;;;10.73;;
49626;SDS011;35527;54.616;39.786;2023-02-02T01:38:17;24.10;;;10.35;;
49626;SDS011;35527;54.616;39.786;2023-02-02T01:41:22;30.50;;;12.00;;
49626;SDS011;35527;54.616;39.786;2023-02-02T01:48:00;30.73;;;11.85;;
49626;SDS011;35527;54.616;39.786;2023-02-02T01:51:06;37.58;;;23.98;;
49626;SDS011;35527;54.616;39.786;2023-02-02T01:57:57;25.35;;;10.30;;
49626;SDS011;35527;54.616;39.786;2023-02-02T02:01:06;42.78;;;25.70;;
49626;SDS011;35527;54.616;39.786;2023-02-02T02:04:15;25.33;;;11.55;;
49626;SDS011;35527;54.616;39.786;2023-02-02T02:07:22;36.42;;;11.82;;
49626;SDS011;35527;54.616;39.786;2023-02-02T02:10:30;27.50;;;11.13;;
49626;SDS011;35527;54.616;39.786;2023-02-02T02:13:35;30.52;;;11.52;;
49626;SDS011;35527;54.616;39.786;2023-02-02T02:34:49;42.45;;;25.63;;
49626;SDS011;35527;54.616;39.786;2023-02-02T02:41:41;27.63;;;11.90;;
49626;SDS011;35527;54.616;39.786;2023-02-02T02:44:49;33.50;;;12.90;;
49626;SDS011;35527;54.616;39.786;2023-02-02T02:47:52;33.38;;;14.15;;
49626;SDS011;35527;54.616;39.786;2023-02-02T02:51:04;30.85;;;12.15;;
49626;SDS011;35527;54.616;39.786;2023-02-02T03:00:38;34.13;;;13.93;;
49626;SDS011;35527;54.616;39.786;2023-02-02T03:07:25;43.03;;;19.42;;
49626;SDS011;35527;54.616;39.786;2023-02-02T03:10:34;59.03;;;21.67;;
49626;SDS011;35527;54.616;39.786;2023-02-02T03:13:40;44.53;;;19.25;;
49626;SDS011;35527;54.616;39.786;2023-02-02T03:16:45;53.13;;;20.10;;
49626;SDS011;35527;54.616;39.786;2023-02-02T03:19:48;64.07;;;41.42;;
49626;SDS011;35527;54.616;39.786;2023-02-02T03:22:52;50.40;;;20.63;;
49626;SDS011;35527;54.616;39.786;2023-02-02T03:25:56;49.40;;;19.13;;
49626;SDS011;35527;54.616;39.786;2023-02-02T03:28:59;55.78;;;22.63;;
49626;SDS011;35527;54.616;39.786;2023-02-02T03:32:07;47.35;;;18.88;;
49626;SDS011;35527;54.616;39.786;2023-02-02T03:35:13;48.55;;;19.88;;
49626;SDS011;35527;54.616;39.786;2023-02-02T03:38:17;40.35;;;15.45;;
49626;SDS011;35527;54.616;39.786;2023-02-02T03:41:21;41.00;;;15.07;;
49626;SDS011;35527;54.616;39.786;2023-02-02T03:44:26;42.38;;;15.98;;
49626;SDS011;35527;54.616;39.786;2023-02-02T03:47:31;41.97;;;16.08;;
49626;SDS011;35527;54.616;39.786;2023-02-02T03:50:33;32.05;;;12.93;;
49626;SDS011;35527;54.616;39.786;2023-02-02T03:53:38;33.38;;;12.50;;
49626;SDS011;35527;54.616;39.786;2023-02-02T03:56:46;37.28;;;15.30;;
49626;SDS011;35527;54.616;39.786;2023-02-02T03:59:49;35.22;;;14.80;;
49626;SDS011;35527;54.616;39.786;2023-02-02T04:02:52;42.55;;;16.00;;
49626;SDS011;35527;54.616;39.786;2023-02-02T04:05:56;35.10;;;13.32;;
49626;SDS011;35527;54.616;39.786;2023-02-02T04:09:01;40.33;;;15.27;;
49626;SDS011;35527;54.616;39.786;2023-02-02T04:12:10;31.40;;;13.98;;
49626;SDS011;35527;54.616;39.786;2023-02-02T04:15:13;40.33;;;16.05;;
49626;SDS011;35527;54.616;39.786;2023-02-02T04:18:50;33.63;;;13.52;;
49626;SDS011;35527;54.616;39.786;2023-02-02T04:21:55;31.42;;;14.52;;
49626;SDS011;35527;54.616;39.786;2023-02-02T04:24:59;37.40;;;13.77;;
49626;SDS011;35527;54.616;39.786;2023-02-02T04:28:02;32.45;;;13.48;;
49626;SDS011;35527;54.616;39.786;2023-02-02T04:31:07;38.20;;;13.77;;
49626;SDS011;35527;54.616;39.786;2023-02-02T04:34:11;31.45;;;12.48;;
49626;SDS011;35527;54.616;39.786;2023-02-02T04:37:14;27.83;;;11.98;;
49626;SDS011;35527;54.616;39.786;2023-02-02T04:40:18;40.50;;;14.30;;
49626;SDS011;35527;54.616;39.786;2023-02-02T04:43:26;41.50;;;14.52;;
49626;SDS011;35527;54.616;39.786;2023-02-02T04:46:54;46.75;;;16.50;;
49626;SDS011;35527;54.616;39.786;2023-02-02T04:49:58;38.65;;;13.35;;
49626;SDS011;35527;54.616;39.786;2023-02-02T04:53:02;37.63;;;14.23;;
49626;SDS011;35527;54.616;39.786;2023-02-02T04:56:07;32.70;;;12.05;;
49626;SDS011;35527;54.616;39.786;2023-02-02T04:59:11;30.35;;;11.85;;
49626;SDS011;35527;54.616;39.786;2023-02-02T05:02:16;32.25;;;11.73;;
49626;SDS011;35527;54.616;39.786;2023-02-02T05:05:21;35.92;;;12.85;;
49626;SDS011;35527;54.616;39.786;2023-02-02T05:08:23;31.35;;;11.90;;
49626;SDS011;35527;54.616;39.786;2023-02-02T05:11:51;36.42;;;12.60;;
49626;SDS011;35527;54.616;39.786;2023-02-02T05:14:55;30.08;;;11.95;;
49626;SDS011;35527;54.616;39.786;2023-02-02T05:17:58;35.78;;;12.23;;
49626;SDS011;35527;54.616;39.786;2023-02-02T05:21:02;30.15;;;10.07;;
49626;SDS011;35527;54.616;39.786;2023-02-02T05:24:30;35.63;;;13.18;;
49626;SDS011;35527;54.616;39.786;2023-02-02T05:27:35;37.90;;;13.05;;
49626;SDS011;35527;54.616;39.786;2023-02-02T05:30:39;29.98;;;11.27;;
49626;SDS011;35527;54.616;39.786;2023-02-02T05:33:43;27.60;;;11.90;;
49626;SDS011;35527;54.616;39.786;2023-02-02T05:37:11;36.33;;;12.80;;
49626;SDS011;35527;54.616;39.786;2023-02-02T05:40:15;31.40;;;13.00;;
49626;SDS011;35527;54.616;39.786;2023-02-02T05:43:23;32.17;;;12.32;;
49626;SDS011;35527;54.616;39.786;2023-02-02T05:46:26;34.60;;;12.30;;
49626;SDS011;35527;54.616;39.786;2023-02-02T05:49:32;31.95;;;11.40;;
49626;SDS011;35527;54.616;39.786;2023-02-02T05:52:44;28.73;;;11.18;;
49626;SDS011;35527;54.616;39.786;2023-02-02T05:56:08;33.78;;;12.98;;
49626;SDS011;35527;54.616;39.786;2023-02-02T05:59:16;29.95;;;11.45;;
49626;SDS011;35527;54.616;39.786;2023-02-02T06:02:20;30.35;;;11.38;;
49626;SDS011;35527;54.616;39.786;2023-02-02T06:05:40;31.33;;;12.25;;
49626;SDS011;35527;54.616;39.786;2023-02-02T06:08:58;35.83;;;12.43;;
49626;SDS011;35527;54.616;39.786;2023-02-02T06:12:03;47.95;;;29.20;;
49626;SDS011;35527;54.616;39.786;2023-02-02T06:15:24;26.85;;;10.75;;
49626;SDS011;35527;54.616;39.786;2023-02-02T06:18:30;32.60;;;12.00;;
49626;SDS011;35527;54.616;39.786;2023-02-02T06:21:33;33.80;;;14.95;;
49626;SDS011;35527;54.616;39.786;2023-02-02T06:25:06;29.33;;;12.77;;
49626;SDS011;35527;54.616;39.786;2023-02-02T06:28:11;37.72;;;13.45;;
49626;SDS011;35527;54.616;39.786;2023-02-02T06:31:20;32.60;;;13.73;;
49626;SDS011;35527;54.616;39.786;2023-02-02T06:34:23;33.15;;;14.27;;
49626;SDS011;35527;54.616;39.786;2023-02-02T06:37:43;31.80;;;12.77;;
49626;SDS011;35527;54.616;39.786;2023-02-02T06:40:46;29.95;;;11.85;;
49626;SDS011;35527;54.616;39.786;2023-02-02T06:46:56;33.33;;;13.10;;
49626;SDS011;35527;54.616;39.786;2023-02-02T06:50:01;30.38;;;11.38;;
49626;SDS011;35527;54.616;39.786;2023-02-02T06:53:05;31.02;;;12.25;;
49626;SDS011;35527;54.616;39.786;2023-02-02T06:56:15;32.42;;;12.55;;
49626;SDS011;35527;54.616;39.786;2023-02-02T06:59:18;31.83;;;12.63;;
49626;SDS011;35527;54.616;39.786;2023-02-02T07:02:24;29.20;;;13.10;;
49626;SDS011;35527;54.616;39.786;2023-02-02T07:05:54;28.85;;;13.18;;
49626;SDS011;35527;54.616;39.786;2023-02-02T07:08:59;42.95;;;25.63;;
49626;SDS011;35527;54.616;39.786;2023-02-02T07:12:01;33.13;;;13.32;;
49626;SDS011;35527;54.616;39.786;2023-02-02T07:15:04;29.42;;;11.00;;
49626;SDS011;35527;54.616;39.786;2023-02-02T07:18:34;37.67;;;13.63;;
49626;SDS011;35527;54.616;39.786;2023-02-02T07:21:40;42.42;;;25.95;;
49626;SDS011;35527;54.616;39.786;2023-02-02T07:24:42;30.85;;;10.80;;
49626;SDS011;35527;54.616;39.786;2023-02-02T07:27:51;31.98;;;14.55;;
49626;SDS011;35527;54.616;39.786;2023-02-02T07:30:58;28.23;;;11.60;;
49626;SDS011;35527;54.616;39.786;2023-02-02T07:34:04;29.65;;;12.52;;
49626;SDS011;35527;54.616;39.786;2023-02-02T07:37:08;28.83;;;11.87;;
49626;SDS011;35527;54.616;39.786;2023-02-02T07:40:15;33.42;;;11.93;;
49626;SDS011;35527;54.616;39.786;2023-02-02T07:43:22;32.60;;;11.98;;
49626;SDS011;35527;54.616;39.786;2023-02-02T07:46:29;33.38;;;11.85;;
49626;SDS011;35527;54.616;39.786;2023-02-02T07:49:33;26.02;;;10.60;;
49626;SDS011;35527;54.616;39.786;2023-02-02T07:52:36;30.40;;;12.40;;
49626;SDS011;35527;54.616;39.786;2023-02-02T07:55:39;32.80;;;11.18;;
49626;SDS011;35527;54.616;39.786;2023-02-02T07:58:43;32.42;;;13.05;;
49626;SDS011;35527;54.616;39.786;2023-02-02T08:01:47;27.05;;;11.70;;
49626;SDS011;35527;54.616;39.786;2023-02-02T08:04:50;32.53;;;13.40;;
49626;SDS011;35527;54.616;39.786;2023-02-02T08:08:18;31.33;;;12.82;;
49626;SDS011;35527;54.616;39.786;2023-02-02T08:11:24;30.95;;;12.52;;
49626;SDS011;35527;54.616;39.786;2023-02-02T08:14:30;28.35;;;12.18;;
49626;SDS011;35527;54.616;39.786;2023-02-02T08:17:34;31.48;;;13.02;;
49626;SDS011;35527;54.616;39.786;2023-02-02T08:20:40;32.83;;;12.50;;
49626;SDS011;35527;54.616;39.786;2023-02-02T08:23:46;24.45;;;10.43;;
49626;SDS011;35527;54.616;39.786;2023-02-02T08:26:50;32.92;;;21.80;;
49626;SDS011;35527;54.616;39.786;2023-02-02T08:29:55;33.00;;;22.45;;
49626;SDS011;35527;54.616;39.786;2023-02-02T08:32:59;28.15;;;12.05;;
49626;SDS011;35527;54.616;39.786;2023-02-02T08:36:03;32.78;;;21.27;;
49626;SDS011;35527;54.616;39.786;2023-02-02T08:39:12;27.17;;;11.85;;
49626;SDS011;35527;54.616;39.786;2023-02-02T08:42:19;28.02;;;10.85;;
49626;SDS011;35527;54.616;39.786;2023-02-02T08:45:29;32.22;;;22.40;;
49626;SDS011;35527;54.616;39.786;2023-02-02T08:51:37;32.58;;;21.58;;
49626;SDS011;35527;54.616;39.786;2023-02-02T08:54:40;34.90;;;23.13;;
49626;SDS011;35527;54.616;39.786;2023-02-02T08:58:08;21.00;;;10.88;;
49626;SDS011;35527;54.616;39.786;2023-02-02T09:01:14;33.40;;;21.88;;
49626;SDS011;35527;54.616;39.786;2023-02-02T09:04:24;23.95;;;10.57;;
49626;SDS011;35527;54.616;39.786;2023-02-02T09:07:28;28.55;;;11.60;;
49626;SDS011;35527;54.616;39.786;2023-02-02T09:10:36;32.97;;;21.67;;
49626;SDS011;35527;54.616;39.786;2023-02-02T09:13:47;32.38;;;20.52;;
49626;SDS011;35527;54.616;39.786;2023-02-02T09:16:52;26.95;;;11.30;;
49626;SDS011;35527;54.616;39.786;2023-02-02T09:19:57;23.17;;;10.80;;
49626;SDS011;35527;54.616;39.786;2023-02-02T09:23:04;23.42;;;10.55;;
49626;SDS011;35527;54.616;39.786;2023-02-02T09:26:09;28.27;;;11.52;;
49626;SDS011;35527;54.616;39.786;2023-02-02T09:29:14;25.70;;;11.38;;
49626;SDS011;35527;54.616;39.786;2023-02-02T09:32:21;18.00;;;8.27;;
49626;SDS011;35527;54.616;39.786;2023-02-02T09:35:28;21.80;;;9.70;;
49626;SDS011;35527;54.616;39.786;2023-02-02T09:38:33;21.92;;;10.27;;
49626;SDS011;35527;54.616;39.786;2023-02-02T09:45:06;17.85;;;7.95;;
49626;SDS011;35527;54.616;39.786;2023-02-02T09:51:58;21.00;;;9.75;;
49626;SDS011;35527;54.616;39.786;2023-02-02T09:58:31;19.30;;;9.80;;
49626;SDS011;35527;54.616;39.786;2023-02-02T10:01:37;22.85;;;16.60;;
49626;SDS011;35527;54.616;39.786;2023-02-02T10:04:50;19.50;;;8.80;;
49626;SDS011;35527;54.616;39.786;2023-02-02T10:07:59;16.73;;;6.72;;
49626;SDS011;35527;54.616;39.786;2023-02-02T10:11:39;17.05;;;7.43;;
49626;SDS011;35527;54.616;39.786;2023-02-02T10:14:45;20.73;;;14.02;;
49626;SDS011;35527;54.616;39.786;2023-02-02T10:17:54;14.77;;;7.63;;
49626;SDS011;35527;54.616;39.786;2023-02-02T10:24:36;24.77;;;16.00;;
49626;SDS011;35527;54.616;39.786;2023-02-02T10:27:39;18.15;;;8.40;;
49626;SDS011;35527;54.616;39.786;2023-02-02T10:30:52;20.45;;;8.20;;
49626;SDS011;35527;54.616;39.786;2023-02-02T10:34:07;17.58;;;7.05;;
49626;SDS011;35527;54.616;39.786;2023-02-02T10:46:52;21.33;;;8.10;;
49626;SDS011;35527;54.616;39.786;2023-02-02T10:50:15;16.83;;;7.60;;
49626;SDS011;35527;54.616;39.786;2023-02-02T10:53:20;16.23;;;7.68;;
49626;SDS011;35527;54.616;39.786;2023-02-02T10:59:45;16.40;;;7.65;;
49626;SDS011;35527;54.616;39.786;2023-02-02T11:03:02;25.08;;;16.63;;
49626;SDS011;35527;54.616;39.786;2023-02-02T11:06:09;15.07;;;5.90;;
49626;SDS011;35527;54.616;39.786;2023-02-02T11:10:03;24.60;;;16.20;;
49626;SDS011;35527;54.616;39.786;2023-02-02T11:13:18;25.02;;;8.88;;
49626;SDS011;35527;54.616;39.786;2023-02-02T11:16:28;16.92;;;7.65;;
49626;SDS011;35527;54.616;39.786;2023-02-02T11:19:46;16.80;;;6.80;;
49626;SDS011;35527;54.616;39.786;2023-02-02T11:23:03;21.98;;;9.00;;
49626;SDS011;35527;54.616;39.786;2023-02-02T11:26:44;19.92;;;8.38;;
49626;SDS011;35527;54.616;39.786;2023-02-02T11:29:50;16.13;;;7.70;;
49626;SDS011;35527;54.616;39.786;2023-02-02T11:32:58;24.10;;;15.63;;
49626;SDS011;35527;54.616;39.786;2023-02-02T11:36:02;23.05;;;9.95;;
49626;SDS011;35527;54.616;39.786;2023-02-02T11:39:18;24.42;;;14.65;;
49626;SDS011;35527;54.616;39.786;2023-02-02T11:42:30;13.73;;;5.32;;
49626;SDS011;35527;54.616;39.786;2023-02-02T11:45:35;14.18;;;6.22;;
49626;SDS011;35527;54.616;39.786;2023-02-02T11:48:46;13.82;;;6.80;;
49626;SDS011;35527;54.616;39.786;2023-02-02T11:52:03;16.67;;;7.00;;
49626;SDS011;35527;54.616;39.786;2023-02-02T11:55:14;17.80;;;6.88;;
49626;SDS011;35527;54.616;39.786;2023-02-02T12:01:49;17.92;;;7.55;;
49626;SDS011;35527;54.616;39.786;2023-02-02T12:05:35;15.45;;;6.35;;
49626;SDS011;35527;54.616;39.786;2023-02-02T12:08:21;16.27;;;5.88;;
49626;SDS011;35527;54.616;39.786;2023-02-02T12:15:08;15.70;;;6.50;;
49626;SDS011;35527;54.616;39.786;2023-02-02T12:18:31;16.50;;;7.13;;
49626;SDS011;35527;54.616;39.786;2023-02-02T12:22:04;17.23;;;6.47;;
49626;SDS011;35527;54.616;39.786;2023-02-02T12:32:22;18.13;;;11.52;;
49626;SDS011;35527;54.616;39.786;2023-02-02T12:45:39;16.13;;;6.35;;
49626;SDS011;35527;54.616;39.786;2023-02-02T13:13:16;18.20;;;12.30;;
49626;SDS011;35527;54.616;39.786;2023-02-02T13:16:31;13.93;;;5.72;;
49626;SDS011;35527;54.616;39.786;2023-02-02T13:19:40;17.30;;;6.38;;
49626;SDS011;35527;54.616;39.786;2023-02-02T13:22:46;18.45;;;6.55;;
49626;SDS011;35527;54.616;39.786;2023-02-02T13:29:06;13.25;;;5.53;;
49626;SDS011;35527;54.616;39.786;2023-02-02T13:32:30;18.00;;;6.70;;
49626;SDS011;35527;54.616;39.786;2023-02-02T13:35:42;14.70;;;5.22;;
49626;SDS011;35527;54.616;39.786;2023-02-02T13:42:41;17.27;;;7.40;;
49626;SDS011;35527;54.616;39.786;2023-02-02T13:56:18;19.70;;;11.35;;
49626;SDS011;35527;54.616;39.786;2023-02-02T14:07:03;14.50;;;6.00;;
49626;SDS011;35527;54.616;39.786;2023-02-02T14:10:19;18.27;;;7.38;;
49626;SDS011;35527;54.616;39.786;2023-02-02T14:20:46;16.38;;;6.75;;
49626;SDS011;35527;54.616;39.786;2023-02-02T14:23:53;13.20;;;6.10;;
49626;SDS011;35527;54.616;39.786;2023-02-02T14:27:01;16.00;;;7.43;;
49626;SDS011;35527;54.616;39.786;2023-02-02T14:30:52;20.67;;;13.98;;
49626;SDS011;35527;54.616;39.786;2023-02-02T14:33:37;21.83;;;9.07;;
49626;SDS011;35527;54.616;39.786;2023-02-02T14:43:49;16.45;;;6.93;;
49626;SDS011;35527;54.616;39.786;2023-02-02T14:46:53;18.42;;;6.75;;
49626;SDS011;35527;54.616;39.786;2023-02-02T14:49:56;24.73;;;13.93;;
49626;SDS011;35527;54.616;39.786;2023-02-02T14:53:02;15.20;;;7.53;;
49626;SDS011;35527;54.616;39.786;2023-02-02T14:56:10;13.40;;;6.00;;
49626;SDS011;35527;54.616;39.786;2023-02-02T14:59:16;12.48;;;5.78;;
49626;SDS011;35527;54.616;39.786;2023-02-02T15:02:33;21.13;;;13.85;;
49626;SDS011;35527;54.616;39.786;2023-02-02T15:05:41;15.25;;;7.03;;
49626;SDS011;35527;54.616;39.786;2023-02-02T15:12:50;18.55;;;8.20;;
49626;SDS011;35527;54.616;39.786;2023-02-02T15:16:10;18.42;;;6.97;;
49626;SDS011;35527;54.616;39.786;2023-02-02T15:22:46;16.50;;;6.00;;
49626;SDS011;35527;54.616;39.786;2023-02-02T15:26:13;19.08;;;7.30;;
49626;SDS011;35527;54.616;39.786;2023-02-02T15:29:31;21.48;;;8.88;;
49626;SDS011;35527;54.616;39.786;2023-02-02T15:32:40;18.02;;;7.65;;
49626;SDS011;35527;54.616;39.786;2023-02-02T15:36:22;23.98;;;16.10;;
49626;SDS011;35527;54.616;39.786;2023-02-02T15:39:40;17.73;;;7.53;;
49626;SDS011;35527;54.616;39.786;2023-02-02T15:42:57;18.90;;;8.95;;
49626;SDS011;35527;54.616;39.786;2023-02-02T15:46:04;19.33;;;8.23;;
49626;SDS011;35527;54.616;39.786;2023-02-02T15:52:44;19.92;;;7.85;;
49626;SDS011;35527;54.616;39.786;2023-02-02T15:55:51;22.75;;;8.05;;
49626;SDS011;35527;54.616;39.786;2023-02-02T15:58:56;20.80;;;7.25;;
49626;SDS011;35527;54.616;39.786;2023-02-02T16:08:32;18.98;;;7.15;;
49626;SDS011;35527;54.616;39.786;2023-02-02T16:11:42;24.52;;;9.77;;
49626;SDS011;35527;54.616;39.786;2023-02-02T16:14:51;20.85;;;8.30;;
49626;SDS011;35527;54.616;39.786;2023-02-02T16:17:58;22.80;;;9.15;;
49626;SDS011;35527;54.616;39.786;2023-02-02T16:21:11;15.32;;;7.57;;
49626;SDS011;35527;54.616;39.786;2023-02-02T16:24:22;23.15;;;9.65;;
49626;SDS011;35527;54.616;39.786;2023-02-02T16:27:29;25.75;;;10.15;;
49626;SDS011;35527;54.616;39.786;2023-02-02T16:30:37;23.00;;;9.80;;
49626;SDS011;35527;54.616;39.786;2023-02-02T16:33:42;21.15;;;9.30;;
49626;SDS011;35527;54.616;39.786;2023-02-02T16:37:04;20.73;;;8.80;;
49626;SDS011;35527;54.616;39.786;2023-02-02T16:40:28;18.15;;;8.48;;
49626;SDS011;35527;54.616;39.786;2023-02-02T16:43:32;16.77;;;7.47;;
49626;SDS011;35527;54.616;39.786;2023-02-02T16:46:43;22.08;;;9.50;;
49626;SDS011;35527;54.616;39.786;2023-02-02T16:49:53;22.50;;;9.13;;
49626;SDS011;35527;54.616;39.786;2023-02-02T16:53:20;22.88;;;10.55;;
49626;SDS011;35527;54.616;39.786;2023-02-02T16:59:36;18.73;;;7.93;;
49626;SDS011;35527;54.616;39.786;2023-02-02T17:02:39;20.42;;;8.65;;
49626;SDS011;35527;54.616;39.786;2023-02-02T17:05:54;25.40;;;10.02;;
49626;SDS011;35527;54.616;39.786;2023-02-02T17:13:02;20.80;;;9.00;;
49626;SDS011;35527;54.616;39.786;2023-02-02T17:16:29;23.33;;;8.73;;
49626;SDS011;35527;54.616;39.786;2023-02-02T17:19:36;27.30;;;10.90;;
49626;SDS011;35527;54.616;39.786;2023-02-02T17:22:39;21.13;;;8.73;;
49626;SDS011;35527;54.616;39.786;2023-02-02T17:25:47;26.30;;;9.90;;
49626;SDS011;35527;54.616;39.786;2023-02-02T17:28:53;23.17;;;8.65;;
49626;SDS011;35527;54.616;39.786;2023-02-02T17:31:58;26.73;;;11.55;;
49626;SDS011;35527;54.616;39.786;2023-02-02T17:35:05;22.55;;;10.80;;
49626;SDS011;35527;54.616;39.786;2023-02-02T17:38:15;23.33;;;10.90;;
49626;SDS011;35527;54.616;39.786;2023-02-02T17:41:19;26.52;;;10.63;;
49626;SDS011;35527;54.616;39.786;2023-02-02T17:44:22;26.05;;;9.88;;
49626;SDS011;35527;54.616;39.786;2023-02-02T17:47:26;23.85;;;9.20;;
49626;SDS011;35527;54.616;39.786;2023-02-02T17:50:30;27.60;;;10.48;;
49626;SDS011;35527;54.616;39.786;2023-02-02T17:53:36;28.30;;;12.70;;
49626;SDS011;35527;54.616;39.786;2023-02-02T17:56:40;23.23;;;10.60;;
49626;SDS011;35527;54.616;39.786;2023-02-02T18:00:09;27.33;;;11.02;;
49626;SDS011;35527;54.616;39.786;2023-02-02T18:03:23;22.58;;;9.57;;
49626;SDS011;35527;54.616;39.786;2023-02-02T18:06:43;32.30;;;21.30;;
49626;SDS011;35527;54.616;39.786;2023-02-02T18:09:49;36.10;;;23.02;;
49626;SDS011;35527;54.616;39.786;2023-02-02T18:12:52;21.27;;;8.50;;
49626;SDS011;35527;54.616;39.786;2023-02-02T18:16:00;29.67;;;11.73;;
49626;SDS011;35527;54.616;39.786;2023-02-02T18:19:03;27.77;;;11.63;;
49626;SDS011;35527;54.616;39.786;2023-02-02T18:22:10;24.52;;;11.00;;
49626;SDS011;35527;54.616;39.786;2023-02-02T18:25:14;26.85;;;9.82;;
49626;SDS011;35527;54.616;39.786;2023-02-02T18:28:19;35.63;;;22.75;;
49626;SDS011;35527;54.616;39.786;2023-02-02T18:31:24;23.75;;;10.75;;
49626;SDS011;35527;54.616;39.786;2023-02-02T18:34:28;29.63;;;13.27;;
49626;SDS011;35527;54.616;39.786;2023-02-02T18:37:36;24.38;;;11.32;;
49626;SDS011;35527;54.616;39.786;2023-02-02T18:40:39;27.35;;;12.32;;
49626;SDS011;35527;54.616;39.786;2023-02-02T18:43:43;28.85;;;11.88;;
49626;SDS011;35527;54.616;39.786;2023-02-02T18:46:47;27.55;;;11.63;;
49626;SDS011;35527;54.616;39.786;2023-02-02T18:49:50;29.98;;;12.75;;
49626;SDS011;35527;54.616;39.786;2023-02-02T18:52:55;28.03;;;11.67;;
49626;SDS011;35527;54.616;39.786;2023-02-02T18:56:05;26.15;;;11.40;;
49626;SDS011;35527;54.616;39.786;2023-02-02T18:59:11;22.63;;;11.15;;
49626;SDS011;35527;54.616;39.786;2023-02-02T19:02:42;31.50;;;12.77;;
49626;SDS011;35527;54.616;39.786;2023-02-02T19:05:45;26.65;;;10.30;;
49626;SDS011;35527;54.616;39.786;2023-02-02T19:09:08;28.60;;;11.20;;
49626;SDS011;35527;54.616;39.786;2023-02-02T19:12:15;31.58;;;11.82;;
49626;SDS011;35527;54.616;39.786;2023-02-02T19:15:18;25.67;;;11.65;;
49626;SDS011;35527;54.616;39.786;2023-02-02T19:18:24;23.58;;;10.88;;
49626;SDS011;35527;54.616;39.786;2023-02-02T19:21:28;28.90;;;10.90;;
49626;SDS011;35527;54.616;39.786;2023-02-02T19:24:38;27.67;;;11.32;;
49626;SDS011;35527;54.616;39.786;2023-02-02T19:27:41;30.40;;;12.23;;
49626;SDS011;35527;54.616;39.786;2023-02-02T19:30:45;30.20;;;12.90;;
49626;SDS011;35527;54.616;39.786;2023-02-02T19:33:51;20.25;;;9.93;;
49626;SDS011;35527;54.616;39.786;2023-02-02T19:36:54;33.65;;;22.05;;
49626;SDS011;35527;54.616;39.786;2023-02-02T19:43:20;27.23;;;11.07;;
49626;SDS011;35527;54.616;39.786;2023-02-02T19:46:28;24.45;;;10.88;;
49626;SDS011;35527;54.616;39.786;2023-02-02T19:49:35;20.58;;;9.32;;
49626;SDS011;35527;54.616;39.786;2023-02-02T19:52:40;30.08;;;20.88;;
49626;SDS011;35527;54.616;39.786;2023-02-02T19:55:47;28.60;;;10.43;;
49626;SDS011;35527;54.616;39.786;2023-02-02T19:58:50;24.42;;;8.50;;
49626;SDS011;35527;54.616;39.786;2023-02-02T20:01:53;24.33;;;10.55;;
49626;SDS011;35527;54.616;39.786;2023-02-02T20:11:37;23.75;;;11.27;;
49626;SDS011;35527;54.616;39.786;2023-02-02T20:14:43;21.65;;;8.20;;
49626;SDS011;35527;54.616;39.786;2023-02-02T20:17:47;25.58;;;9.85;;
49626;SDS011;35527;54.616;39.786;2023-02-02T20:20:54;26.60;;;10.88;;
49626;SDS011;35527;54.616;39.786;2023-02-02T20:23:59;23.85;;;10.30;;
49626;SDS011;35527;54.616;39.786;2023-02-02T20:27:04;26.17;;;10.95;;
49626;SDS011;35527;54.616;39.786;2023-02-02T20:30:18;24.20;;;10.93;;
49626;SDS011;35527;54.616;39.786;2023-02-02T20:33:27;22.73;;;9.15;;
49626;SDS011;35527;54.616;39.786;2023-02-02T20:36:39;22.10;;;10.77;;
49626;SDS011;35527;54.616;39.786;2023-02-02T20:39:47;16.85;;;7.63;;
49626;SDS011;35527;54.616;39.786;2023-02-02T20:42:56;23.00;;;9.93;;
49626;SDS011;35527;54.616;39.786;2023-02-02T20:46:00;26.55;;;10.38;;
49626;SDS011;35527;54.616;39.786;2023-02-02T20:49:04;23.08;;;9.38;;
49626;SDS011;35527;54.616;39.786;2023-02-02T20:52:10;20.73;;;9.98;;
49626;SDS011;35527;54.616;39.786;2023-02-02T20:55:24;18.90;;;8.85;;
49626;SDS011;35527;54.616;39.786;2023-02-02T20:58:27;27.95;;;9.73;;
49626;SDS011;35527;54.616;39.786;2023-02-02T21:01:33;27.33;;;10.95;;
49626;SDS011;35527;54.616;39.786;2023-02-02T21:04:35;25.55;;;9.77;;
49626;SDS011;35527;54.616;39.786;2023-02-02T21:08:06;22.15;;;9.05;;
49626;SDS011;35527;54.616;39.786;2023-02-02T21:11:12;23.00;;;9.15;;
49626;SDS011;35527;54.616;39.786;2023-02-02T21:14:15;22.77;;;9.45;;
49626;SDS011;35527;54.616;39.786;2023-02-02T21:17:20;25.02;;;11.10;;
49626;SDS011;35527;54.616;39.786;2023-02-02T21:20:25;21.17;;;9.20;;
49626;SDS011;35527;54.616;39.786;2023-02-02T21:23:31;28.95;;;18.85;;
49626;SDS011;35527;54.616;39.786;2023-02-02T21:26:34;21.40;;;9.43;;
49626;SDS011;35527;54.616;39.786;2023-02-02T21:29:37;26.38;;;10.13;;